Time;durP1;ratioP1;P1;durP2;ratioP2;P2;SDS_P1;SDS_P2;PMS_P1;PMS_P2;Temp;Humidity;BMP_temperature;BMP_pressure;BME280_temperature;BME280_humidity;BME280_pressure;Samples;Min_cycle;Max_cycle;Signal;HPM_P1;HPM_P2
2023/05/16 00:00:15;;;;;;;11.70;9.70;;;;;;;-128.00;-1.00;-1.00;18895;289;7504712;-33
2023/05/16 00:02:41;;;;;;;16.70;9.00;;;;;;;-128.00;-1.00;-1.00;18468;285;7504519;-35
2023/05/16 00:05:07;;;;;;;8.70;7.60;;;;;;;-128.00;-1.00;-1.00;18465;348;7504612;-33
2023/05/16 00:07:33;;;;;;;11.30;7.50;;;;;;;-128.00;-1.00;-1.00;18462;289;7504554;-35
2023/05/16 00:09:59;;;;;;;9.10;7.40;;;;;;;-128.00;-1.00;-1.00;18483;298;7504667;-32
2023/05/16 00:12:26;;;;;;;10.10;7.10;;;;;;;-128.00;-1.00;-1.00;18464;312;7504345;-32
2023/05/16 00:14:52;;;;;;;8.90;7.90;;;;;;;-128.00;-1.00;-1.00;18477;297;7505305;-33
2023/05/16 00:17:19;;;;;;;9.60;7.90;;;;;;;-128.00;-1.00;-1.00;18493;289;7504720;-30
2023/05/16 00:19:47;;;;;;;8.10;6.90;;;;;;;-128.00;-1.00;-1.00;18451;299;7504417;-31
2023/05/16 00:22:14;;;;;;;10.30;8.30;;;;;;;-128.00;-1.00;-1.00;18476;297;7505648;-32
2023/05/16 00:24:40;;;;;;;10.80;7.50;;;;;;;-128.00;-1.00;-1.00;18497;285;7505332;-35
2023/05/16 00:27:07;;;;;;;8.30;7.50;;;;;;;-128.00;-1.00;-1.00;18467;285;7505126;-35
2023/05/16 00:29:35;;;;;;;10.90;8.40;;;;;;;-128.00;-1.00;-1.00;18468;289;7505665;-35
2023/05/16 00:32:01;;;;;;;8.60;7.00;;;;;;;-128.00;-1.00;-1.00;18465;297;7504931;-36
2023/05/16 00:34:27;;;;;;;9.30;7.80;;;;;;;-128.00;-1.00;-1.00;18874;297;7504101;-32
2023/05/16 00:36:53;;;;;;;15.60;8.60;;;;;;;-128.00;-1.00;-1.00;18890;289;7504400;-34
2023/05/16 00:39:19;;;;;;;10.50;8.80;;;;;;;-128.00;-1.00;-1.00;18848;298;7505028;-36
2023/05/16 00:41:45;;;;;;;12.80;9.70;;;;;;;-128.00;-1.00;-1.00;18872;297;7507357;-35
2023/05/16 00:44:12;;;;;;;11.60;9.40;;;;;;;-128.00;-1.00;-1.00;18900;297;7504587;-32
2023/05/16 00:46:38;;;;;;;14.00;9.40;;;;;;;-128.00;-1.00;-1.00;18864;298;7504951;-31
2023/05/16 00:49:04;;;;;;;14.00;8.40;;;;;;;-128.00;-1.00;-1.00;18882;289;7504574;-32
2023/05/16 00:51:30;;;;;;;12.00;8.40;;;;;;;-128.00;-1.00;-1.00;18873;285;7504981;-34
2023/05/16 00:53:56;;;;;;;10.10;7.80;;;;;;;-128.00;-1.00;-1.00;18871;297;7504957;-34
2023/05/16 00:56:23;;;;;;;10.10;8.60;;;;;;;-128.00;-1.00;-1.00;18856;289;7505076;-33
2023/05/16 00:58:49;;;;;;;11.80;8.50;;;;;;;-128.00;-1.00;-1.00;18850;337;7504263;-34
2023/05/16 01:01:15;;;;;;;13.10;7.90;;;;;;;-128.00;-1.00;-1.00;18869;289;7504275;-32
2023/05/16 01:03:45;;;;;;;17.50;8.50;;;;;;;-128.00;-1.00;-1.00;18887;289;7505062;-33
2023/05/16 01:06:11;;;;;;;10.40;8.40;;;;;;;-128.00;-1.00;-1.00;18479;316;7504199;-36
2023/05/16 01:08:37;;;;;;;13.50;8.40;;;;;;;-128.00;-1.00;-1.00;18486;289;7504805;-35
2023/05/16 01:11:24;;;;;;;11.30;8.90;;;;;;;-128.00;-1.00;-1.00;18872;296;7504148;-36
2023/05/16 01:14:14;;;;;;;8.80;7.80;;;;;;;-128.00;-1.00;-1.00;18442;297;7504453;-35
2023/05/16 01:16:58;;;;;;;10.20;6.00;;;;;;;-128.00;-1.00;-1.00;18495;285;7506493;-36
2023/05/16 01:19:46;;;;;;;8.40;7.60;;;;;;;-128.00;-1.00;-1.00;18486;348;7505594;-32
2023/05/16 01:22:20;;;;;;;6.10;5.30;;;;;;;-128.00;-1.00;-1.00;18454;285;7505871;-32
2023/05/16 01:25:06;;;;;;;6.40;5.80;;;;;;;-128.00;-1.00;-1.00;18452;297;7505660;-36
2023/05/16 01:27:33;;;;;;;6.40;5.50;;;;;;;-128.00;-1.00;-1.00;18480;289;7506179;-34
2023/05/16 01:29:58;;;;;;;6.70;6.00;;;;;;;-128.00;-1.00;-1.00;18480;297;7506041;-33
2023/05/16 01:32:25;;;;;;;14.20;6.20;;;;;;;-128.00;-1.00;-1.00;18877;285;7504962;-36
2023/05/16 01:34:51;;;;;;;13.10;6.60;;;;;;;-128.00;-1.00;-1.00;18901;297;7505179;-34
2023/05/16 01:37:28;;;;;;;8.90;6.70;;;;;;;-128.00;-1.00;-1.00;18884;289;7504882;-34
2023/05/16 01:39:56;;;;;;;8.10;6.40;;;;;;;-128.00;-1.00;-1.00;18462;308;7504695;-35
2023/05/16 01:42:23;;;;;;;8.80;6.40;;;;;;;-128.00;-1.00;-1.00;18429;299;7504642;-34
2023/05/16 01:44:55;;;;;;;10.80;6.70;;;;;;;-128.00;-1.00;-1.00;18468;285;7504740;-31
2023/05/16 01:47:20;;;;;;;5.70;5.10;;;;;;;-128.00;-1.00;-1.00;18450;297;7504402;-35
2023/05/16 01:50:11;;;;;;;7.70;6.50;;;;;;;-128.00;-1.00;-1.00;18467;297;7506034;-35
2023/05/16 01:52:56;;;;;;;7.30;6.60;;;;;;;-128.00;-1.00;-1.00;18482;297;7504276;-32
2023/05/16 01:55:39;;;;;;;6.80;5.90;;;;;;;-128.00;-1.00;-1.00;18455;289;7504834;-31
2023/05/16 01:58:05;;;;;;;4.30;3.60;;;;;;;-128.00;-1.00;-1.00;18459;297;7504386;-35
2023/05/16 02:00:30;;;;;;;9.10;6.60;;;;;;;-128.00;-1.00;-1.00;18465;298;7505760;-35
2023/05/16 02:02:56;;;;;;;8.80;6.10;;;;;;;-128.00;-1.00;-1.00;18452;297;7504246;-32
2023/05/16 02:05:22;;;;;;;16.40;6.10;;;;;;;-128.00;-1.00;-1.00;18480;285;7505273;-31
2023/05/16 02:07:48;;;;;;;7.50;6.10;;;;;;;-128.00;-1.00;-1.00;18464;289;7506111;-34
2023/05/16 02:10:14;;;;;;;7.30;6.20;;;;;;;-128.00;-1.00;-1.00;18849;289;7504647;-32
2023/05/16 02:12:41;;;;;;;7.00;6.30;;;;;;;-128.00;-1.00;-1.00;18885;296;7504616;-32
2023/05/16 02:15:08;;;;;;;13.90;8.30;;;;;;;-128.00;-1.00;-1.00;18867;297;7506181;-36
2023/05/16 02:17:34;;;;;;;8.20;6.80;;;;;;;-128.00;-1.00;-1.00;18497;297;7505758;-31
2023/05/16 02:20:05;;;;;;;8.60;6.80;;;;;;;-128.00;-1.00;-1.00;18459;297;7504609;-36
2023/05/16 02:22:32;;;;;;;5.70;4.20;;;;;;;-128.00;-1.00;-1.00;18452;297;7506437;-36
2023/05/16 02:24:59;;;;;;;4.90;4.20;;;;;;;-128.00;-1.00;-1.00;18492;285;7504453;-31
2023/05/16 02:27:25;;;;;;;7.20;6.10;;;;;;;-128.00;-1.00;-1.00;18464;285;7504365;-34
2023/05/16 02:29:51;;;;;;;9.90;5.50;;;;;;;-128.00;-1.00;-1.00;18465;297;7504824;-30
2023/05/16 02:32:16;;;;;;;6.70;5.20;;;;;;;-128.00;-1.00;-1.00;18452;285;7506144;-34
2023/05/16 02:34:42;;;;;;;8.00;6.80;;;;;;;-128.00;-1.00;-1.00;18856;298;7504948;-34
2023/05/16 02:37:09;;;;;;;10.00;8.00;;;;;;;-128.00;-1.00;-1.00;18868;285;7504201;-34
2023/05/16 02:39:36;;;;;;;11.40;7.30;;;;;;;-128.00;-1.00;-1.00;18859;297;7504397;-35
2023/05/16 02:42:04;;;;;;;8.00;6.90;;;;;;;-128.00;-1.00;-1.00;18465;285;7504379;-34
2023/05/16 02:44:29;;;;;;;8.30;6.60;;;;;;;-128.00;-1.00;-1.00;18469;285;7504903;-35
2023/05/16 02:46:55;;;;;;;11.40;7.20;;;;;;;-128.00;-1.00;-1.00;18465;296;7506009;-32
2023/05/16 02:49:21;;;;;;;10.00;7.50;;;;;;;-128.00;-1.00;-1.00;18470;297;7506049;-35
2023/05/16 02:51:46;;;;;;;8.30;7.60;;;;;;;-128.00;-1.00;-1.00;18450;336;7504603;-36
2023/05/16 02:54:12;;;;;;;8.50;6.80;;;;;;;-128.00;-1.00;-1.00;18458;285;7505162;-36
2023/05/16 02:56:38;;;;;;;8.70;7.20;;;;;;;-128.00;-1.00;-1.00;18452;348;7504902;-33
2023/05/16 02:59:04;;;;;;;9.90;7.70;;;;;;;-128.00;-1.00;-1.00;18461;341;7505484;-34
2023/05/16 03:01:30;;;;;;;7.60;6.40;;;;;;;-128.00;-1.00;-1.00;18468;341;7504969;-33
2023/05/16 03:03:56;;;;;;;8.60;7.50;;;;;;;-128.00;-1.00;-1.00;18455;300;7505809;-34
2023/05/16 03:06:21;;;;;;;9.00;7.60;;;;;;;-128.00;-1.00;-1.00;18452;297;7504400;-34
2023/05/16 03:08:48;;;;;;;9.10;7.20;;;;;;;-128.00;-1.00;-1.00;18455;285;7505874;-35
2023/05/16 03:11:15;;;;;;;12.30;8.00;;;;;;;-128.00;-1.00;-1.00;18453;308;7505648;-37
2023/05/16 03:13:41;;;;;;;10.30;9.30;;;;;;;-128.00;-1.00;-1.00;18473;297;7505103;-32
2023/05/16 03:16:07;;;;;;;8.60;7.80;;;;;;;-128.00;-1.00;-1.00;18470;285;7504956;-32
2023/05/16 03:18:33;;;;;;;7.60;5.20;;;;;;;-128.00;-1.00;-1.00;18464;297;7505137;-34
2023/05/16 03:21:00;;;;;;;15.80;6.70;;;;;;;-128.00;-1.00;-1.00;18466;288;7504735;-32
2023/05/16 03:23:26;;;;;;;9.40;8.20;;;;;;;-128.00;-1.00;-1.00;18460;296;7505028;-35
2023/05/16 03:25:51;;;;;;;7.80;6.00;;;;;;;-128.00;-1.00;-1.00;18468;297;7504737;-35
2023/05/16 03:28:17;;;;;;;11.90;5.60;;;;;;;-128.00;-1.00;-1.00;18891;297;7504866;-32
2023/05/16 03:30:44;;;;;;;13.80;9.20;;;;;;;-128.00;-1.00;-1.00;18874;297;7504671;-31
2023/05/16 03:33:10;;;;;;;12.70;8.50;;;;;;;-128.00;-1.00;-1.00;18875;297;7505371;-33
2023/05/16 03:35:36;;;;;;;6.60;5.20;;;;;;;-128.00;-1.00;-1.00;18842;297;7504473;-34
2023/05/16 03:38:02;;;;;;;4.90;3.80;;;;;;;-128.00;-1.00;-1.00;18858;296;7504556;-36
2023/05/16 03:40:28;;;;;;;8.20;4.70;;;;;;;-128.00;-1.00;-1.00;18890;296;7504246;-35
2023/05/16 03:42:55;;;;;;;9.20;7.90;;;;;;;-128.00;-1.00;-1.00;18878;285;7504371;-33
2023/05/16 03:45:21;;;;;;;9.40;8.30;;;;;;;-128.00;-1.00;-1.00;18883;296;7505342;-36
2023/05/16 03:47:48;;;;;;;8.80;7.80;;;;;;;-128.00;-1.00;-1.00;18867;297;7505056;-36
2023/05/16 03:50:14;;;;;;;4.90;4.40;;;;;;;-128.00;-1.00;-1.00;18436;297;7505058;-34
2023/05/16 03:52:40;;;;;;;8.50;7.60;;;;;;;-128.00;-1.00;-1.00;18481;348;7506616;-32
2023/05/16 03:55:06;;;;;;;6.20;5.60;;;;;;;-128.00;-1.00;-1.00;18456;332;7504372;-36
2023/05/16 03:57:32;;;;;;;5.30;3.40;;;;;;;-128.00;-1.00;-1.00;18432;297;7505219;-33
2023/05/16 03:59:58;;;;;;;5.40;4.30;;;;;;;-128.00;-1.00;-1.00;18455;296;7504436;-33
2023/05/16 04:02:24;;;;;;;9.70;6.40;;;;;;;-128.00;-1.00;-1.00;18477;297;7504982;-36
2023/05/16 04:04:50;;;;;;;7.50;4.60;;;;;;;-128.00;-1.00;-1.00;18461;297;7504716;-35
2023/05/16 04:07:15;;;;;;;7.50;6.60;;;;;;;-128.00;-1.00;-1.00;18472;297;7506833;-35
2023/05/16 04:09:42;;;;;;;7.50;5.80;;;;;;;-128.00;-1.00;-1.00;18456;289;7504316;-36
2023/05/16 04:12:08;;;;;;;9.80;7.60;;;;;;;-128.00;-1.00;-1.00;18887;337;7504949;-33
2023/05/16 04:14:34;;;;;;;13.00;6.30;;;;;;;-128.00;-1.00;-1.00;18867;349;7504480;-36
2023/05/16 04:17:00;;;;;;;6.40;5.70;;;;;;;-128.00;-1.00;-1.00;18834;343;7504376;-33
2023/05/16 04:19:26;;;;;;;10.30;7.40;;;;;;;-128.00;-1.00;-1.00;18873;316;7504560;-36
2023/05/16 04:21:53;;;;;;;9.40;5.40;;;;;;;-128.00;-1.00;-1.00;18467;297;7506351;-32
2023/05/16 04:24:19;;;;;;;7.80;6.80;;;;;;;-128.00;-1.00;-1.00;18877;285;7504349;-36
2023/05/16 04:26:45;;;;;;;13.60;8.20;;;;;;;-128.00;-1.00;-1.00;18891;345;7504387;-35
2023/05/16 04:29:13;;;;;;;8.50;7.50;;;;;;;-128.00;-1.00;-1.00;18884;285;7504868;-33
2023/05/16 04:31:38;;;;;;;7.20;6.40;;;;;;;-128.00;-1.00;-1.00;18479;289;7505799;-32
2023/05/16 04:34:04;;;;;;;8.40;7.00;;;;;;;-128.00;-1.00;-1.00;18453;296;7505240;-31
2023/05/16 04:36:30;;;;;;;8.90;6.60;;;;;;;-128.00;-1.00;-1.00;18448;298;7505819;-38
2023/05/16 04:38:56;;;;;;;4.70;4.10;;;;;;;-128.00;-1.00;-1.00;18477;289;7504881;-33
2023/05/16 05:18:46;;;;;;;7.70;7.00;;;;;;;-100.04;19.20;19773.19;19568;296;8045109;-33
2023/05/16 05:21:12;;;;;;;5.90;5.40;;;;;;;-128.00;-1.00;-1.00;18557;298;7504656;-33
2023/05/16 05:23:39;;;;;;;3.30;3.00;;;;;;;-128.00;-1.00;-1.00;18472;296;7504301;-33
2023/05/16 05:26:04;;;;;;;8.40;7.00;;;;;;;-128.00;-1.00;-1.00;18474;289;7506579;-34
2023/05/16 05:28:30;;;;;;;4.70;4.00;;;;;;;-128.00;-1.00;-1.00;18488;297;7504795;-32
2023/05/16 05:30:56;;;;;;;6.70;5.60;;;;;;;-128.00;-1.00;-1.00;18469;304;7505517;-32
2023/05/16 05:33:25;;;;;;;8.10;6.90;;;;;;;-128.00;-1.00;-1.00;18864;297;7504698;-32
2023/05/16 05:35:52;;;;;;;5.00;2.90;;;;;;;-128.00;-1.00;-1.00;18452;297;7504319;-33
2023/05/16 05:38:19;;;;;;;5.80;5.30;;;;;;;-128.00;-1.00;-1.00;18456;297;7504971;-36
2023/05/16 05:40:45;;;;;;;5.70;4.40;;;;;;;-128.00;-1.00;-1.00;18464;348;7505548;-32
2023/05/16 05:43:11;;;;;;;6.00;3.10;;;;;;;-128.00;-1.00;-1.00;18480;304;7504783;-36
2023/05/16 05:45:36;;;;;;;3.50;2.60;;;;;;;-128.00;-1.00;-1.00;18450;298;7504709;-36
2023/05/16 05:48:02;;;;;;;5.80;4.70;;;;;;;-128.00;-1.00;-1.00;18474;285;7505796;-34
2023/05/16 05:50:28;;;;;;;36.20;3.30;;;;;;;-128.00;-1.00;-1.00;18472;289;7507117;-32
2023/05/16 05:52:54;;;;;;;4.40;3.60;;;;;;;-128.00;-1.00;-1.00;18445;333;7504835;-32
2023/05/16 05:55:19;;;;;;;5.10;3.40;;;;;;;-128.00;-1.00;-1.00;18465;289;7504595;-34
2023/05/16 05:57:45;;;;;;;7.50;6.40;;;;;;;-128.00;-1.00;-1.00;18457;345;7504196;-35
2023/05/16 06:00:11;;;;;;;8.10;7.20;;;;;;;-128.00;-1.00;-1.00;18470;297;7504794;-33
2023/05/16 06:02:37;;;;;;;6.20;5.60;;;;;;;-128.00;-1.00;-1.00;18501;289;7504287;-33
2023/05/16 06:05:03;;;;;;;6.10;5.40;;;;;;;-128.00;-1.00;-1.00;18449;289;7505773;-33
2023/05/16 06:07:29;;;;;;;8.10;5.10;;;;;;;-128.00;-1.00;-1.00;18465;298;7506281;-32
2023/05/16 06:09:54;;;;;;;6.30;5.70;;;;;;;-128.00;-1.00;-1.00;18484;289;7504570;-33
2023/05/16 06:12:20;;;;;;;7.40;6.70;;;;;;;-128.00;-1.00;-1.00;18470;296;7505350;-33
2023/05/16 06:14:46;;;;;;;10.70;5.50;;;;;;;-128.00;-1.00;-1.00;18483;289;7505329;-37
2023/05/16 06:17:12;;;;;;;8.70;6.20;;;;;;;-128.00;-1.00;-1.00;18503;287;7504560;-33
2023/05/16 06:19:38;;;;;;;11.50;6.00;;;;;;;-128.00;-1.00;-1.00;18871;296;7505184;-33
2023/05/16 06:22:04;;;;;;;8.20;7.50;;;;;;;-128.00;-1.00;-1.00;18486;319;7504823;-35
2023/05/16 06:24:30;;;;;;;8.60;7.50;;;;;;;-128.00;-1.00;-1.00;18881;288;7506444;-36
2023/05/16 06:26:57;;;;;;;7.70;6.50;;;;;;;-128.00;-1.00;-1.00;18896;288;7506054;-36
2023/05/16 06:29:23;;;;;;;6.10;5.10;;;;;;;-128.00;-1.00;-1.00;18912;296;7505052;-32
2023/05/16 06:31:49;;;;;;;6.70;6.10;;;;;;;-128.00;-1.00;-1.00;18891;297;7505068;-36
2023/05/16 06:34:15;;;;;;;6.50;5.70;;;;;;;-128.00;-1.00;-1.00;18491;296;7504152;-36
2023/05/16 06:36:43;;;;;;;7.10;5.20;;;;;;;-128.00;-1.00;-1.00;18885;288;7504202;-36
2023/05/16 06:39:08;;;;;;;7.40;5.20;;;;;;;-128.00;-1.00;-1.00;18468;298;7504385;-33
2023/05/16 06:41:34;;;;;;;9.60;5.90;;;;;;;-128.00;-1.00;-1.00;18899;288;7504444;-33
2023/05/16 06:44:01;;;;;;;6.70;6.10;;;;;;;-128.00;-1.00;-1.00;18903;348;7504331;-35
2023/05/16 06:46:27;;;;;;;5.00;4.20;;;;;;;-128.00;-1.00;-1.00;18884;297;7504414;-36
2023/05/16 06:48:53;;;;;;;10.40;5.10;;;;;;;-128.00;-1.00;-1.00;18880;297;7504533;-33
2023/05/16 06:51:19;;;;;;;6.40;5.10;;;;;;;-128.00;-1.00;-1.00;18906;308;7505051;-36
2023/05/16 06:53:46;;;;;;;14.20;7.70;;;;;;;-128.00;-1.00;-1.00;18885;297;7505161;-37
2023/05/16 06:56:12;;;;;;;6.10;5.30;;;;;;;-128.00;-1.00;-1.00;18891;295;7505483;-36
2023/05/16 06:58:38;;;;;;;8.20;7.40;;;;;;;-128.00;-1.00;-1.00;18878;297;7505358;-33
2023/05/16 07:01:04;;;;;;;8.30;7.60;;;;;;;-128.00;-1.00;-1.00;18875;288;7504248;-35
2023/05/16 07:03:31;;;;;;;10.40;8.90;;;;;;;-128.00;-1.00;-1.00;18882;308;7504335;-32
2023/05/16 07:05:57;;;;;;;8.90;8.10;;;;;;;-128.00;-1.00;-1.00;18858;295;7505456;-33
2023/05/16 07:08:24;;;;;;;11.50;8.70;;;;;;;-128.00;-1.00;-1.00;18882;297;7504295;-35
2023/05/16 07:10:50;;;;;;;8.00;7.30;;;;;;;-128.00;-1.00;-1.00;18459;295;7506365;-32
2023/05/16 07:13:16;;;;;;;10.60;8.50;;;;;;;-128.00;-1.00;-1.00;18863;288;7505092;-35
2023/05/16 07:15:42;;;;;;;7.00;6.30;;;;;;;-128.00;-1.00;-1.00;18863;288;7505661;-34
2023/05/16 07:18:08;;;;;;;12.70;11.00;;;;;;;-128.00;-1.00;-1.00;18864;306;7505050;-33
2023/05/16 07:20:35;;;;;;;7.10;6.40;;;;;;;-128.00;-1.00;-1.00;18863;297;7506531;-36
2023/05/16 07:23:01;;;;;;;13.50;9.90;;;;;;;-128.00;-1.00;-1.00;18872;297;7504484;-36
2023/05/16 07:25:27;;;;;;;17.50;7.50;;;;;;;-128.00;-1.00;-1.00;18870;298;7505134;-36
2023/05/16 07:27:53;;;;;;;7.80;7.00;;;;;;;-128.00;-1.00;-1.00;18856;308;7504352;-36
2023/05/16 07:30:20;;;;;;;7.00;6.00;;;;;;;-128.00;-1.00;-1.00;18871;297;7504879;-35
2023/05/16 07:32:46;;;;;;;6.10;5.00;;;;;;;-128.00;-1.00;-1.00;18875;288;7504860;-37
2023/05/16 07:35:12;;;;;;;5.10;4.50;;;;;;;-128.00;-1.00;-1.00;18870;296;7504774;-35
2023/05/16 07:37:41;;;;;;;5.50;5.00;;;;;;;-128.00;-1.00;-1.00;18881;297;7504841;-32
2023/05/16 07:40:07;;;;;;;5.40;4.90;;;;;;;-128.00;-1.00;-1.00;18472;295;7504709;-32
2023/05/16 07:42:33;;;;;;;10.50;7.00;;;;;;;-128.00;-1.00;-1.00;18474;307;7504409;-36
2023/05/16 07:44:59;;;;;;;6.60;5.80;;;;;;;-128.00;-1.00;-1.00;18869;288;7504999;-33
2023/05/16 07:47:25;;;;;;;7.50;6.90;;;;;;;-128.00;-1.00;-1.00;18863;297;7504598;-33
2023/05/16 07:49:51;;;;;;;6.60;5.00;;;;;;;-128.00;-1.00;-1.00;18872;295;7504438;-34
2023/05/16 07:52:18;;;;;;;4.70;4.20;;;;;;;-128.00;-1.00;-1.00;18898;348;7504590;-35
2023/05/16 07:54:46;;;;;;;3.90;2.90;;;;;;;-128.00;-1.00;-1.00;18861;297;7506401;-34
2023/05/16 07:57:13;;;;;;;3.90;3.50;;;;;;;-128.00;-1.00;-1.00;18461;297;7504325;-34
2023/05/16 07:59:39;;;;;;;3.70;3.30;;;;;;;-128.00;-1.00;-1.00;18488;296;7505123;-32
2023/05/16 08:02:05;;;;;;;3.60;3.20;;;;;;;-128.00;-1.00;-1.00;18463;297;7504590;-34
2023/05/16 08:04:31;;;;;;;2.00;1.90;;;;;;;-128.00;-1.00;-1.00;18474;296;7505811;-32
2023/05/16 08:06:57;;;;;;;5.10;3.10;;;;;;;-128.00;-1.00;-1.00;18869;316;7504391;-37
2023/05/16 08:09:23;;;;;;;4.30;3.90;;;;;;;-128.00;-1.00;-1.00;18878;295;7504425;-33
2023/05/16 08:11:50;;;;;;;5.10;4.60;;;;;;;-128.00;-1.00;-1.00;18445;348;7506020;-33
2023/05/16 08:14:16;;;;;;;6.60;3.80;;;;;;;-128.00;-1.00;-1.00;18496;296;7504339;-33
2023/05/16 08:16:41;;;;;;;6.50;4.90;;;;;;;-128.00;-1.00;-1.00;18491;348;7504672;-33
2023/05/16 08:19:07;;;;;;;8.80;5.40;;;;;;;-128.00;-1.00;-1.00;18455;295;7506106;-33
2023/05/16 08:21:35;;;;;;;4.50;4.20;;;;;;;-128.00;-1.00;-1.00;18479;295;7504622;-37
2023/05/16 08:24:02;;;;;;;4.80;4.00;;;;;;;-128.00;-1.00;-1.00;18494;288;7504744;-35
2023/05/16 08:26:28;;;;;;;2.90;2.50;;;;;;;-128.00;-1.00;-1.00;18468;288;7504953;-32
2023/05/16 08:28:54;;;;;;;4.90;4.40;;;;;;;-128.00;-1.00;-1.00;18463;320;7504269;-35
2023/05/16 08:31:20;;;;;;;4.20;3.70;;;;;;;-128.00;-1.00;-1.00;18470;297;7504557;-38
2023/05/16 08:33:46;;;;;;;3.60;3.30;;;;;;;-128.00;-1.00;-1.00;18486;295;7507015;-33
2023/05/16 08:36:12;;;;;;;4.50;3.50;;;;;;;-128.00;-1.00;-1.00;18887;295;7504357;-32
2023/05/16 08:38:38;;;;;;;10.50;3.20;;;;;;;-128.00;-1.00;-1.00;18476;295;7505045;-35
2023/05/16 08:41:04;;;;;;;7.00;2.90;;;;;;;-128.00;-1.00;-1.00;18478;344;7504769;-35
2023/05/16 08:43:29;;;;;;;5.10;2.90;;;;;;;-128.00;-1.00;-1.00;18459;297;7505899;-35
2023/05/16 08:45:56;;;;;;;5.40;4.90;;;;;;;-128.00;-1.00;-1.00;18869;288;7504491;-31
2023/05/16 08:48:23;;;;;;;5.50;4.10;;;;;;;-128.00;-1.00;-1.00;18482;296;7504866;-31
2023/05/16 08:50:48;;;;;;;4.50;4.10;;;;;;;-128.00;-1.00;-1.00;18470;296;7504739;-32
2023/05/16 08:53:16;;;;;;;3.50;3.20;;;;;;;-128.00;-1.00;-1.00;18454;288;7504527;-36
2023/05/16 08:55:42;;;;;;;5.60;2.90;;;;;;;-128.00;-1.00;-1.00;18472;296;7506171;-36
2023/05/16 08:58:08;;;;;;;5.40;4.10;;;;;;;-128.00;-1.00;-1.00;18442;303;7504349;-36
2023/05/16 09:00:34;;;;;;;3.00;2.70;;;;;;;-128.00;-1.00;-1.00;18488;296;7505835;-32
2023/05/16 09:02:59;;;;;;;14.70;3.70;;;;;;;-128.00;-1.00;-1.00;18471;296;7506879;-36
2023/05/16 09:05:25;;;;;;;3.50;3.10;;;;;;;-128.00;-1.00;-1.00;18442;298;7506077;-32
2023/05/16 09:07:51;;;;;;;3.70;3.40;;;;;;;-128.00;-1.00;-1.00;18460;296;7504065;-33
2023/05/16 09:10:16;;;;;;;10.40;3.60;;;;;;;-128.00;-1.00;-1.00;18483;296;7504412;-37
2023/05/16 09:12:42;;;;;;;3.60;3.20;;;;;;;-128.00;-1.00;-1.00;18480;299;7505170;-36
2023/05/16 09:15:09;;;;;;;3.10;2.80;;;;;;;-128.00;-1.00;-1.00;18481;288;7505027;-32
2023/05/16 09:17:41;;;;;;;3.30;2.90;;;;;;;-128.00;-1.00;-1.00;18453;296;7504939;-36
2023/05/16 09:20:14;;;;;;;2.40;2.20;;;;;;;-128.00;-1.00;-1.00;18486;288;7504537;-37
2023/05/16 09:22:54;;;;;;;8.60;3.00;;;;;;;-128.00;-1.00;-1.00;18472;296;7505780;-33
2023/05/16 09:25:21;;;;;;;2.20;2.00;;;;;;;-128.00;-1.00;-1.00;18465;288;7504511;-35
2023/05/16 09:27:51;;;;;;;2.30;2.10;;;;;;;-128.00;-1.00;-1.00;18445;288;7504534;-32
2023/05/16 09:30:20;;;;;;;2.50;2.30;;;;;;;-128.00;-1.00;-1.00;18471;337;7504942;-31
2023/05/16 09:32:45;;;;;;;3.40;2.90;;;;;;;-128.00;-1.00;-1.00;18495;288;7505235;-35
2023/05/16 09:35:16;;;;;;;2.50;2.30;;;;;;;-128.00;-1.00;-1.00;18466;296;7506015;-35
2023/05/16 09:37:48;;;;;;;14.70;2.60;;;;;;;-128.00;-1.00;-1.00;18451;297;7504574;-32
2023/05/16 09:40:14;;;;;;;3.00;2.70;;;;;;;-128.00;-1.00;-1.00;18470;337;7504911;-32
2023/05/16 09:42:41;;;;;;;4.00;2.70;;;;;;;-128.00;-1.00;-1.00;18462;348;7504844;-36
2023/05/16 09:45:10;;;;;;;2.30;2.10;;;;;;;-128.00;-1.00;-1.00;18444;286;7504423;-32
2023/05/16 09:47:35;;;;;;;3.20;2.80;;;;;;;-128.00;-1.00;-1.00;18512;288;7504570;-36
2023/05/16 09:50:01;;;;;;;2.90;2.70;;;;;;;-128.00;-1.00;-1.00;18471;348;7504703;-36
2023/05/16 09:52:28;;;;;;;4.90;3.40;;;;;;;-128.00;-1.00;-1.00;18863;297;7504670;-32
2023/05/16 09:54:54;;;;;;;6.30;3.40;;;;;;;-128.00;-1.00;-1.00;18474;296;7505751;-32
2023/05/16 09:57:20;;;;;;;8.00;1.80;;;;;;;-128.00;-1.00;-1.00;18483;303;7505291;-32
2023/05/16 09:59:46;;;;;;;1.50;1.20;;;;;;;-128.00;-1.00;-1.00;18474;296;7504280;-31
2023/05/16 10:02:12;;;;;;;2.80;2.20;;;;;;;-128.00;-1.00;-1.00;18469;296;7504756;-31
2023/05/16 10:04:38;;;;;;;3.10;2.00;;;;;;;-128.00;-1.00;-1.00;18483;336;7504300;-35
2023/05/16 10:07:04;;;;;;;3.50;3.20;;;;;;;-128.00;-1.00;-1.00;18463;297;7504516;-35
2023/05/16 10:09:31;;;;;;;2.60;2.40;;;;;;;-128.00;-1.00;-1.00;18451;297;7504766;-35
2023/05/16 10:12:01;;;;;;;4.50;3.10;;;;;;;-128.00;-1.00;-1.00;18444;299;7506488;-32
2023/05/16 10:14:27;;;;;;;1.90;1.70;;;;;;;-128.00;-1.00;-1.00;18477;295;7504422;-35
2023/05/16 10:16:53;;;;;;;4.40;2.90;;;;;;;-128.00;-1.00;-1.00;18862;288;7504623;-35
2023/05/16 10:19:20;;;;;;;2.90;2.50;;;;;;;-128.00;-1.00;-1.00;18879;348;7505134;-35
2023/05/16 10:21:50;;;;;;;2.70;2.50;;;;;;;-128.00;-1.00;-1.00;18457;288;7506022;-36
2023/05/16 10:24:17;;;;;;;3.50;2.40;;;;;;;-128.00;-1.00;-1.00;18447;298;7504600;-32
2023/05/16 10:26:42;;;;;;;2.50;1.90;;;;;;;-128.00;-1.00;-1.00;18476;288;7504753;-35
2023/05/16 10:29:09;;;;;;;4.50;1.90;;;;;;;-128.00;-1.00;-1.00;18472;296;7504622;-32
2023/05/16 10:31:36;;;;;;;2.10;1.90;;;;;;;-128.00;-1.00;-1.00;18476;297;7504777;-31
2023/05/16 10:34:02;;;;;;;4.40;3.00;;;;;;;-128.00;-1.00;-1.00;18468;347;7504810;-32
2023/05/16 10:36:27;;;;;;;1.90;1.70;;;;;;;-128.00;-1.00;-1.00;18484;303;7505573;-35
2023/05/16 10:38:53;;;;;;;2.10;1.90;;;;;;;-128.00;-1.00;-1.00;18468;288;7504692;-32
2023/05/16 10:41:20;;;;;;;1.80;1.40;;;;;;;-128.00;-1.00;-1.00;18466;295;7505089;-32
2023/05/16 10:43:55;;;;;;;2.00;1.90;;;;;;;-128.00;-1.00;-1.00;18484;295;7504549;-32
2023/05/16 10:46:21;;;;;;;2.60;2.40;;;;;;;-128.00;-1.00;-1.00;18446;295;7504773;-36
2023/05/16 10:48:47;;;;;;;2.10;1.90;;;;;;;-128.00;-1.00;-1.00;18451;288;7505246;-32
2023/05/16 10:51:32;;;;;;;3.00;2.80;;;;;;;-128.00;-1.00;-1.00;18455;295;7504623;-35
2023/05/16 10:54:03;;;;;;;2.40;1.60;;;;;;;-128.00;-1.00;-1.00;18488;295;7506663;-38
2023/05/16 10:56:29;;;;;;;2.00;1.80;;;;;;;-128.00;-1.00;-1.00;18482;348;7505415;-32
2023/05/16 10:58:55;;;;;;;1.70;1.50;;;;;;;-128.00;-1.00;-1.00;18451;288;7505993;-35
2023/05/16 11:01:23;;;;;;;1.30;1.20;;;;;;;-128.00;-1.00;-1.00;18468;317;7505011;-32
2023/05/16 11:03:56;;;;;;;2.80;2.20;;;;;;;-128.00;-1.00;-1.00;18471;296;7506011;-32
2023/05/16 11:06:23;;;;;;;2.50;2.30;;;;;;;-128.00;-1.00;-1.00;18490;288;7504826;-31
2023/05/16 11:48:18;;;;;;;1.50;1.30;;;;;;;-97.91;8.51;19809.35;98387;293;1544692;-33
2023/05/16 11:50:43;;;;;;;2.50;1.80;;;;;;;-128.00;-1.00;-1.00;97541;293;1003761;-32
2023/05/16 11:53:09;;;;;;;2.90;1.70;;;;;;;-128.00;-1.00;-1.00;97910;293;1003143;-32
2023/05/16 11:55:35;;;;;;;3.40;2.00;;;;;;;-128.00;-1.00;-1.00;98056;293;1003254;-37
2023/05/16 11:58:01;;;;;;;2.00;1.50;;;;;;;-128.00;-1.00;-1.00;98003;293;1003004;-33
2023/05/16 12:00:28;;;;;;;1.80;1.60;;;;;;;-128.00;-1.00;-1.00;98177;293;1003312;-33
2023/05/16 12:03:01;;;;;;;1.90;1.20;;;;;;;-128.00;-1.00;-1.00;89619;293;3003374;-35
2023/05/16 12:05:29;;;;;;;2.20;1.70;;;;;;;-128.00;-1.00;-1.00;21734;293;7504804;-35
2023/05/16 12:07:56;;;;;;;2.30;2.00;;;;;;;-128.00;-1.00;-1.00;18822;293;7504652;-32
2023/05/16 12:10:22;;;;;;;1.20;1.10;;;;;;;-128.00;-1.00;-1.00;18512;293;7504376;-31
2023/05/16 12:12:50;;;;;;;2.30;2.10;;;;;;;-128.00;-1.00;-1.00;18517;293;7506014;-35
2023/05/16 12:15:16;;;;;;;1.10;1.00;;;;;;;-128.00;-1.00;-1.00;18533;293;7506123;-32
2023/05/16 12:17:41;;;;;;;1.60;1.30;;;;;;;-128.00;-1.00;-1.00;18521;293;7504449;-37
2023/05/16 12:20:13;;;;;;;1.70;1.20;;;;;;;-128.00;-1.00;-1.00;18909;293;7504365;-35
2023/05/16 12:22:42;;;;;;;2.10;1.50;;;;;;;-128.00;-1.00;-1.00;18499;281;7504916;-31
2023/05/16 12:25:32;;;;;;;2.70;1.00;;;;;;;-128.00;-1.00;-1.00;18506;293;7504231;-35
2023/05/16 12:27:59;;;;;;;10.10;1.30;;;;;;;-128.00;-1.00;-1.00;18504;293;7505645;-31
2023/05/16 12:30:26;;;;;;;3.70;1.90;;;;;;;-128.00;-1.00;-1.00;18515;293;7506240;-35
2023/05/16 12:32:59;;;;;;;1.70;1.30;;;;;;;-128.00;-1.00;-1.00;18508;293;7505057;-35
2023/05/16 12:35:25;;;;;;;1.30;1.00;;;;;;;-128.00;-1.00;-1.00;18497;308;7504625;-31
2023/05/16 12:37:51;;;;;;;3.00;0.90;;;;;;;-128.00;-1.00;-1.00;18512;293;7504814;-36
2023/05/16 12:40:19;;;;;;;2.20;1.40;;;;;;;-128.00;-1.00;-1.00;18482;293;7504599;-37
2023/05/16 12:42:53;;;;;;;1.20;1.10;;;;;;;-128.00;-1.00;-1.00;18483;293;7504301;-33
2023/05/16 12:45:18;;;;;;;3.10;2.00;;;;;;;-128.00;-1.00;-1.00;18529;281;7504547;-32
2023/05/16 12:47:45;;;;;;;1.50;1.00;;;;;;;-128.00;-1.00;-1.00;18517;293;7504511;-32